Time;durP1;ratioP1;P1;durP2;ratioP2;P2;SDS_P1;SDS_P2;PMS_P1;PMS_P2;Temp;Humidity;BMP_temperature;BMP_pressure;BME280_temperature;BME280_humidity;BME280_pressure;Samples;Min_cycle;Max_cycle;Signal;HPM_P1;HPM_P2
2024/01/12 00:00:35;;;;;;;1999.90;999.90;;;-5.40;99.90;;;;;;6096846;23;20017;-76
2024/01/12 00:03:02;;;;;;;1999.90;999.90;;;-5.40;99.90;;;;;;6095888;23;20339;-76
2024/01/12 00:05:28;;;;;;;1999.90;999.90;;;-5.50;99.90;;;;;;6070810;23;20026;-76
2024/01/12 00:07:54;;;;;;;1999.90;999.90;;;-5.50;99.90;;;;;;6096563;23;20018;-76
2024/01/12 00:10:19;;;;;;;1999.90;999.90;;;-5.50;99.90;;;;;;6071419;23;20050;-76
2024/01/12 00:12:45;;;;;;;1999.90;999.90;;;-5.40;99.90;;;;;;6072108;23;20031;-79
2024/01/12 00:15:11;;;;;;;1999.90;999.90;;;-5.40;99.90;;;;;;6072893;23;20458;-75
2024/01/12 00:17:36;;;;;;;1999.90;999.90;;;-5.40;99.90;;;;;;6098319;23;20351;-75
2024/01/12 00:20:04;;;;;;;1999.90;999.90;;;-5.40;99.90;;;;;;6098412;23;20077;-76
2024/01/12 00:22:30;;;;;;;1999.90;999.90;;;-5.50;99.90;;;;;;6097813;23;20003;-75
2024/01/12 00:24:55;;;;;;;1999.90;999.90;;;-5.50;99.90;;;;;;6098581;23;20011;-76
2024/01/12 00:27:22;;;;;;;1999.90;999.90;;;-5.50;99.90;;;;;;6098222;23;20080;-75
2024/01/12 00:29:47;;;;;;;1999.90;999.90;;;-5.40;99.90;;;;;;6097928;23;20037;-75
2024/01/12 00:32:13;;;;;;;1999.90;999.90;;;-5.30;99.90;;;;;;6071696;23;20442;-76
2024/01/12 00:34:38;;;;;;;1999.90;999.90;;;-5.20;99.90;;;;;;6072081;23;20589;-75
2024/01/12 00:37:04;;;;;;;1999.90;999.90;;;-5.30;99.90;;;;;;6071652;23;20007;-76
2024/01/12 00:39:30;;;;;;;1999.90;999.90;;;-5.30;99.90;;;;;;6071888;23;20022;-76
2024/01/12 00:41:55;;;;;;;1999.90;999.90;;;-5.50;99.90;;;;;;6096840;23;20007;-75
2024/01/12 00:44:25;;;;;;;1999.90;999.90;;;-5.40;99.90;;;;;;6097589;23;20011;-75
2024/01/12 00:46:51;;;;;;;1999.90;999.90;;;-5.50;99.90;;;;;;6097367;23;20422;-75
2024/01/12 00:49:18;;;;;;;1999.90;999.90;;;-5.70;99.90;;;;;;6097400;23;20078;-75
2024/01/12 00:51:44;;;;;;;1999.90;999.90;;;-5.80;99.90;;;;;;6071107;23;20061;-76
2024/01/12 00:54:10;;;;;;;1999.90;999.90;;;-5.70;99.90;;;;;;6071559;23;20018;-76
2024/01/12 00:56:36;;;;;;;1999.90;999.90;;;-5.60;99.90;;;;;;6097830;23;20007;-75
2024/01/12 00:59:02;;;;;;;1999.90;999.90;;;-5.60;99.90;;;;;;6070921;23;20014;-76
2024/01/12 01:01:28;;;;;;;1999.90;999.90;;;-5.70;99.90;;;;;;6096377;23;20003;-75
2024/01/12 01:03:54;;;;;;;1999.90;999.90;;;-5.60;99.90;;;;;;6097350;23;20018;-75
2024/01/12 01:06:19;;;;;;;1999.90;999.90;;;-5.60;99.90;;;;;;6097788;23;20030;-76
2024/01/12 01:08:45;;;;;;;1999.90;999.90;;;-5.60;99.90;;;;;;6097344;23;20007;-76
2024/01/12 01:11:11;;;;;;;1999.90;999.90;;;-5.70;99.90;;;;;;6096700;23;20011;-76
2024/01/12 01:13:37;;;;;;;1999.90;999.90;;;-5.70;99.90;;;;;;6097700;23;20015;-76
2024/01/12 01:16:04;;;;;;;1999.90;999.90;;;-5.80;99.90;;;;;;6071334;23;20018;-75
2024/01/12 01:18:32;;;;;;;1999.90;999.90;;;-5.90;99.90;;;;;;6096941;23;20006;-75
2024/01/12 01:20:58;;;;;;;1999.90;999.90;;;-5.90;99.90;;;;;;6072094;23;20077;-75
2024/01/12 01:23:24;;;;;;;1999.90;999.90;;;-5.80;99.90;;;;;;6097515;23;20057;-76
2024/01/12 01:25:50;;;;;;;1999.90;999.90;;;-5.90;99.90;;;;;;6071512;23;20394;-75
2024/01/12 01:28:16;;;;;;;1999.90;999.90;;;-5.90;99.90;;;;;;6097265;23;20003;-75
2024/01/12 01:30:45;;;;;;;1999.90;999.90;;;-5.90;99.90;;;;;;6097449;23;20007;-75
2024/01/12 01:33:10;;;;;;;1999.90;999.90;;;-5.90;99.90;;;;;;6096397;23;20011;-75
2024/01/12 01:35:36;;;;;;;1999.90;999.90;;;-5.80;99.90;;;;;;6071622;23;20359;-76
2024/01/12 01:38:01;;;;;;;1999.90;999.90;;;-5.80;99.90;;;;;;6096989;23;20014;-74
2024/01/12 01:40:27;;;;;;;1999.90;999.90;;;-5.70;99.90;;;;;;6097217;23;20098;-74
2024/01/12 01:42:53;;;;;;;1999.90;999.90;;;-5.90;99.90;;;;;;6096379;23;20054;-75
2024/01/12 01:45:18;;;;;;;1999.90;999.90;;;-5.90;99.90;;;;;;6095137;22;20085;-77
2024/01/12 01:47:45;;;;;;;1999.90;999.90;;;-5.90;99.90;;;;;;6096464;23;20078;-78
2024/01/12 01:50:13;;;;;;;1999.90;999.90;;;-5.90;99.90;;;;;;6071140;23;20011;-76
2024/01/12 01:52:39;;;;;;;1999.90;999.90;;;-6.00;99.90;;;;;;6071135;23;20022;-76
2024/01/12 01:55:05;;;;;;;1999.90;999.90;;;-5.90;99.90;;;;;;6072600;23;20354;-76
2024/01/12 01:57:32;;;;;;;1999.90;999.90;;;-5.90;99.90;;;;;;6098102;23;20007;-77
2024/01/12 01:59:58;;;;;;;1999.90;999.90;;;-6.00;99.90;;;;;;6098250;23;20434;-77
2024/01/12 02:02:24;;;;;;;1999.90;999.90;;;-6.00;99.90;;;;;;6098135;23;20012;-77
2024/01/12 02:04:51;;;;;;;1999.90;999.90;;;-6.00;99.90;;;;;;6072359;23;20015;-77
2024/01/12 02:07:17;;;;;;;1999.90;999.90;;;-6.10;99.90;;;;;;6097484;23;20030;-77
2024/01/12 02:09:43;;;;;;;1999.90;999.90;;;-6.10;99.90;;;;;;6098441;23;20061;-77
2024/01/12 02:12:09;;;;;;;1999.90;999.90;;;-6.10;99.90;;;;;;6097886;23;20011;-77
2024/01/12 02:14:34;;;;;;;1999.90;999.90;;;-6.10;99.90;;;;;;6072444;23;20066;-77
2024/01/12 02:17:00;;;;;;;1999.90;999.90;;;-6.00;99.90;;;;;;6097985;23;20334;-77
2024/01/12 02:19:26;;;;;;;1999.90;999.90;;;-6.20;99.90;;;;;;6072783;23;20058;-77
2024/01/12 02:21:51;;;;;;;1999.90;999.90;;;-6.20;99.90;;;;;;6097880;23;20087;-77
2024/01/12 02:24:17;;;;;;;1999.90;999.90;;;-6.30;99.90;;;;;;6072576;23;20038;-77
2024/01/12 02:26:42;;;;;;;1999.90;999.90;;;-6.40;99.90;;;;;;6098066;23;20003;-77
2024/01/12 02:29:08;;;;;;;1999.90;999.90;;;-6.20;99.90;;;;;;6072609;23;20018;-77
2024/01/12 02:31:33;;;;;;;1999.90;999.90;;;-6.20;99.90;;;;;;6097814;23;20041;-77
2024/01/12 02:33:59;;;;;;;1999.90;999.90;;;-6.20;99.90;;;;;;6097879;23;20011;-77
2024/01/12 02:36:28;;;;;;;1999.90;999.90;;;-6.10;99.90;;;;;;6097511;23;20316;-77
2024/01/12 02:38:54;;;;;;;1999.90;999.90;;;-6.10;99.90;;;;;;6098094;23;20037;-77
2024/01/12 02:41:20;;;;;;;1999.90;999.90;;;-6.10;99.90;;;;;;6071966;23;20019;-77
2024/01/12 02:43:46;;;;;;;1999.90;999.90;;;-6.10;99.90;;;;;;6072237;23;20014;-77
2024/01/12 02:46:12;;;;;;;1999.90;999.90;;;-6.00;99.90;;;;;;6097701;23;20015;-77
2024/01/12 02:48:37;;;;;;;1999.90;999.90;;;-5.90;99.90;;;;;;6098294;23;20009;-77
2024/01/12 02:51:04;;;;;;;1999.90;999.90;;;-6.00;99.90;;;;;;6097709;23;20018;-77
2024/01/12 02:53:29;;;;;;;1999.90;999.90;;;-6.10;99.90;;;;;;6071842;23;20057;-77
2024/01/12 02:55:55;;;;;;;1999.90;999.90;;;-6.20;99.90;;;;;;6072138;23;20023;-77
2024/01/12 02:58:20;;;;;;;1999.90;999.90;;;-6.10;99.90;;;;;;6098111;23;20010;-77
2024/01/12 03:00:46;;;;;;;1999.90;999.90;;;-6.10;99.90;;;;;;6098149;23;20014;-77
2024/01/12 03:03:11;;;;;;;1999.90;999.90;;;-6.10;99.90;;;;;;6097509;23;20339;-77
2024/01/12 03:05:37;;;;;;;1999.90;999.90;;;-6.20;99.90;;;;;;6072508;23;20014;-77
2024/01/12 03:08:03;;;;;;;1999.90;999.90;;;-6.20;99.90;;;;;;6072391;23;20122;-77
2024/01/12 03:10:28;;;;;;;1999.90;999.90;;;-6.10;99.90;;;;;;6098041;23;20014;-77
2024/01/12 03:12:54;;;;;;;1999.90;999.90;;;-6.30;99.90;;;;;;6097639;23;20031;-77
2024/01/12 03:15:19;;;;;;;1999.90;999.90;;;-6.40;99.90;;;;;;6098868;23;20026;-77
2024/01/12 03:17:45;;;;;;;1999.90;999.90;;;-6.30;99.90;;;;;;6085799;23;20014;-77
2024/01/12 03:20:10;;;;;;;1999.90;999.90;;;-6.30;99.90;;;;;;6101522;23;20042;-77
2024/01/12 03:22:36;;;;;;;1999.90;999.90;;;-6.20;99.90;;;;;;6097958;23;20061;-77
2024/01/12 03:25:02;;;;;;;1999.90;999.90;;;-6.20;99.90;;;;;;6072150;23;20015;-77
2024/01/12 03:27:28;;;;;;;1999.90;999.90;;;-6.20;99.90;;;;;;6097277;23;20431;-77
2024/01/12 03:29:54;;;;;;;1999.90;999.90;;;-6.20;99.90;;;;;;6071774;23;20014;-77
2024/01/12 03:32:22;;;;;;;1999.90;999.90;;;-6.20;99.90;;;;;;6097170;23;20369;-77
2024/01/12 03:34:48;;;;;;;1999.90;999.90;;;-6.10;99.90;;;;;;6097412;23;20061;-77
2024/01/12 03:37:13;;;;;;;1999.90;999.90;;;-6.20;99.90;;;;;;6097459;23;20130;-77
2024/01/12 03:39:39;;;;;;;1999.90;999.90;;;-6.20;99.90;;;;;;6071942;23;20066;-77
2024/01/12 03:42:05;;;;;;;1999.90;999.90;;;-6.10;99.90;;;;;;6071453;23;20011;-77
2024/01/12 03:44:30;;;;;;;1999.90;999.90;;;-6.10;99.90;;;;;;6097309;23;20086;-77
2024/01/12 03:46:56;;;;;;;1999.90;999.90;;;-6.10;99.90;;;;;;6106344;23;20006;-77
2024/01/12 03:49:24;;;;;;;1999.90;999.90;;;-6.00;99.90;;;;;;6126962;23;20015;-77
2024/01/12 03:51:57;;;;;;;1999.90;999.90;;;-6.10;99.90;;;;;;6126470;23;20011;-77
2024/01/12 03:54:23;;;;;;;1999.90;999.90;;;-6.10;99.90;;;;;;6126788;23;20011;-77
2024/01/12 03:56:49;;;;;;;1999.90;999.90;;;-6.20;99.90;;;;;;6126573;23;20086;-77
2024/01/12 03:59:15;;;;;;;1999.90;999.90;;;-6.20;99.90;;;;;;6125116;23;20509;-77
2024/01/12 04:01:44;;;;;;;1999.90;999.90;;;-6.20;99.90;;;;;;6126423;23;20010;-77
2024/01/12 04:04:11;;;;;;;1999.90;999.90;;;-6.30;99.90;;;;;;6126844;23;20019;-77
2024/01/12 04:06:37;;;;;;;1999.90;999.90;;;-6.20;99.90;;;;;;6126826;23;20010;-77
2024/01/12 04:09:02;;;;;;;1999.90;999.90;;;-6.20;99.90;;;;;;6126839;23;20014;-77
2024/01/12 04:11:28;;;;;;;1999.90;999.90;;;-6.10;99.90;;;;;;6126348;23;20381;-77
2024/01/12 04:13:54;;;;;;;1999.90;999.90;;;-6.10;99.90;;;;;;6126708;22;20011;-77
2024/01/12 04:16:20;;;;;;;1999.90;999.90;;;-6.10;99.90;;;;;;6126470;22;20093;-76
2024/01/12 04:18:46;;;;;;;1999.90;999.90;;;-6.20;99.90;;;;;;6126614;23;20017;-76
2024/01/12 04:21:12;;;;;;;1999.90;999.90;;;-6.20;99.90;;;;;;6126370;23;20017;-76
2024/01/12 04:23:39;;;;;;;1999.90;999.90;;;-6.30;99.90;;;;;;6126161;23;20450;-77
2024/01/12 04:26:07;;;;;;;1999.90;999.90;;;-6.30;99.90;;;;;;6124849;23;20042;-76
2024/01/12 04:28:33;;;;;;;1999.90;999.90;;;-6.40;99.90;;;;;;6126659;23;20358;-76
2024/01/12 04:31:02;;;;;;;1999.90;999.90;;;-6.30;99.90;;;;;;6126339;23;20015;-77
2024/01/12 04:33:28;;;;;;;1999.90;999.90;;;-6.20;99.90;;;;;;6124836;23;20038;-76
2024/01/12 04:35:53;;;;;;;1999.90;999.90;;;-6.20;99.90;;;;;;6126425;23;20090;-77
2024/01/12 04:38:19;;;;;;;1999.90;999.90;;;-6.20;99.90;;;;;;6124894;23;20085;-77
2024/01/12 04:40:45;;;;;;;1999.90;999.90;;;-6.30;99.90;;;;;;6125301;23;20041;-78
2024/01/12 04:43:10;;;;;;;1999.90;999.90;;;-6.30;99.90;;;;;;6127226;23;20437;-78
2024/01/12 04:45:36;;;;;;;1999.90;999.90;;;-6.30;99.90;;;;;;6122228;23;20085;-77
2024/01/12 04:48:01;;;;;;;1999.90;999.90;;;-6.30;99.90;;;;;;6071258;23;20295;-77
2024/01/12 04:50:27;;;;;;;1999.90;999.90;;;-6.20;99.90;;;;;;6070345;23;20038;-77
2024/01/12 04:52:54;;;;;;;1999.90;999.90;;;-6.20;99.90;;;;;;6096829;23;20331;-78
2024/01/12 04:55:20;;;;;;;1999.90;999.90;;;-6.30;99.90;;;;;;6096886;23;20023;-77
2024/01/12 04:57:45;;;;;;;1999.90;999.90;;;-6.30;99.90;;;;;;6074554;23;20343;-77
2024/01/12 05:00:11;;;;;;;1999.90;999.90;;;-6.30;99.90;;;;;;6100464;23;20015;-77
2024/01/12 05:02:37;;;;;;;1999.90;999.90;;;-6.30;99.90;;;;;;6100431;23;20034;-77
2024/01/12 05:05:08;;;;;;;1999.90;999.90;;;-6.30;99.90;;;;;;6074385;23;20473;-77
2024/01/12 05:07:33;;;;;;;1999.90;999.90;;;-6.30;99.90;;;;;;6073115;23;20019;-77
2024/01/12 05:09:59;;;;;;;1999.90;999.90;;;-6.30;99.90;;;;;;6099461;23;20011;-77
2024/01/12 05:12:25;;;;;;;1999.90;999.90;;;-6.30;99.90;;;;;;6072946;23;20014;-77
2024/01/12 05:14:50;;;;;;;1999.90;999.90;;;-6.40;99.90;;;;;;6098927;23;20042;-77
2024/01/12 05:17:16;;;;;;;1999.90;999.90;;;-6.40;99.90;;;;;;6099304;23;20030;-77
2024/01/12 05:19:41;;;;;;;1999.90;999.90;;;-6.30;99.90;;;;;;6098967;23;20015;-78
2024/01/12 05:22:07;;;;;;;1999.90;999.90;;;-6.30;99.90;;;;;;6098693;23;20088;-77
2024/01/12 05:24:33;;;;;;;1999.90;999.90;;;-6.30;99.90;;;;;;6099325;23;20011;-77
2024/01/12 05:26:59;;;;;;;1999.90;999.90;;;-6.30;99.90;;;;;;6106967;23;19999;-77
2024/01/12 05:29:25;;;;;;;1999.90;999.90;;;-6.40;99.90;;;;;;6095488;23;20007;-78
2024/01/12 05:31:50;;;;;;;1999.90;999.90;;;-6.40;99.90;;;;;;6100812;23;20065;-78
2024/01/12 05:34:16;;;;;;;1999.90;999.90;;;-6.40;99.90;;;;;;6074419;23;20324;-77
2024/01/12 05:36:42;;;;;;;1999.90;999.90;;;-6.40;99.90;;;;;;6099564;23;20042;-77
2024/01/12 05:39:08;;;;;;;1999.90;999.90;;;-6.50;99.90;;;;;;6099556;23;20019;-77
2024/01/12 05:41:33;;;;;;;1999.90;999.90;;;-6.50;99.90;;;;;;6099843;23;20009;-77
2024/01/12 05:43:59;;;;;;;1999.90;999.90;;;-6.50;99.90;;;;;;6099344;23;20015;-77
2024/01/12 05:46:24;;;;;;;1999.90;999.90;;;-6.50;99.90;;;;;;6098620;23;20046;-77
2024/01/12 05:48:50;;;;;;;1999.90;999.90;;;-6.60;99.90;;;;;;6098716;23;20017;-76
2024/01/12 05:51:16;;;;;;;1999.90;999.90;;;-6.50;99.90;;;;;;6073066;23;20021;-76
2024/01/12 05:53:41;;;;;;;1999.90;999.90;;;-6.60;99.90;;;;;;6099051;23;20011;-76
2024/01/12 05:56:07;;;;;;;1999.90;999.90;;;-6.60;99.90;;;;;;6098954;23;20074;-76
2024/01/12 05:58:33;;;;;;;1999.90;999.90;;;-6.60;99.90;;;;;;6099187;23;20011;-77
2024/01/12 06:00:59;;;;;;;1999.90;999.90;;;-6.60;99.90;;;;;;6098645;23;20010;-77
2024/01/12 06:03:28;;;;;;;1999.90;999.90;;;-6.70;99.90;;;;;;6072373;23;20011;-78
2024/01/12 06:05:54;;;;;;;1999.90;999.90;;;-6.60;99.90;;;;;;6099515;23;20049;-78
2024/01/12 06:08:19;;;;;;;1999.90;999.90;;;-6.50;99.90;;;;;;6098135;23;20003;-77
2024/01/12 06:10:45;;;;;;;1999.90;999.90;;;-6.80;99.90;;;;;;6098377;23;20049;-78
2024/01/12 06:13:10;;;;;;;1999.90;999.90;;;-6.80;99.90;;;;;;6098039;23;20363;-76
2024/01/12 06:15:37;;;;;;;1999.90;999.90;;;-6.60;99.90;;;;;;6072390;23;20023;-76
2024/01/12 06:18:02;;;;;;;1999.90;999.90;;;-6.70;99.90;;;;;;6098195;23;20003;-76
2024/01/12 06:20:28;;;;;;;1999.90;999.90;;;-6.70;99.90;;;;;;6096621;23;20435;-76
2024/01/12 06:22:54;;;;;;;1999.90;999.90;;;-6.60;99.90;;;;;;6097405;23;20011;-77
2024/01/12 06:25:20;;;;;;;1999.90;999.90;;;-6.60;99.90;;;;;;6097222;23;20439;-76
2024/01/12 06:27:45;;;;;;;1999.90;999.90;;;-6.60;99.90;;;;;;6097617;23;20010;-77
2024/01/12 06:30:11;;;;;;;1999.90;999.90;;;-6.50;99.90;;;;;;6097540;23;20366;-77
2024/01/12 06:32:38;;;;;;;1999.90;999.90;;;-6.40;99.90;;;;;;6096892;23;20369;-76
2024/01/12 06:35:07;;;;;;;1999.90;999.90;;;-6.30;99.90;;;;;;6071962;23;20093;-77
2024/01/12 06:37:32;;;;;;;1999.90;999.90;;;-6.50;99.90;;;;;;6097380;23;20069;-77
2024/01/12 06:39:58;;;;;;;1999.90;999.90;;;-6.50;99.90;;;;;;6097556;23;20423;-76
2024/01/12 06:42:24;;;;;;;1999.90;999.90;;;-6.50;99.90;;;;;;6071516;23;20034;-77
2024/01/12 06:44:49;;;;;;;1999.90;999.90;;;-6.60;99.90;;;;;;6096430;23;20451;-75
2024/01/12 06:47:15;;;;;;;1999.90;999.90;;;-6.80;99.90;;;;;;6113526;23;20021;-76
2024/01/12 06:49:45;;;;;;;1999.90;999.90;;;-6.70;99.90;;;;;;6125323;22;20014;-76
2024/01/12 06:52:11;;;;;;;1999.90;999.90;;;-6.80;99.90;;;;;;6125946;23;20003;-75
2024/01/12 06:54:36;;;;;;;1999.90;999.90;;;-6.90;99.90;;;;;;6126889;23;20025;-76
2024/01/12 06:57:02;;;;;;;1999.90;999.90;;;-6.30;99.90;;;;;;6126871;23;20010;-76
2024/01/12 06:59:28;;;;;;;1999.90;999.90;;;-6.70;99.90;;;;;;6126504;23;20006;-77
2024/01/12 07:01:53;;;;;;;1999.90;999.90;;;-6.90;99.90;;;;;;6125042;23;19999;-77
2024/01/12 07:04:19;;;;;;;1999.90;999.90;;;-6.80;99.90;;;;;;6127630;23;20010;-77
2024/01/12 07:06:45;;;;;;;1999.90;999.90;;;-6.80;99.90;;;;;;6127091;23;20072;-76
2024/01/12 07:09:14;;;;;;;1999.90;999.90;;;-6.70;99.90;;;;;;6127042;23;20356;-76
2024/01/12 07:11:43;;;;;;;1999.90;999.90;;;-6.70;99.90;;;;;;6126395;23;20029;-76
2024/01/12 07:14:09;;;;;;;1999.90;999.90;;;-6.70;99.90;;;;;;6125445;23;20090;-77
2024/01/12 07:16:36;;;;;;;1999.90;999.90;;;-6.70;99.90;;;;;;6126959;23;20010;-76
2024/01/12 07:19:01;;;;;;;1999.90;999.90;;;-6.60;99.90;;;;;;6126366;23;20089;-77
2024/01/12 07:21:27;;;;;;;1999.90;999.90;;;-6.60;99.90;;;;;;6128471;22;20042;-77
2024/01/12 07:23:53;;;;;;;1999.90;999.90;;;-6.60;99.90;;;;;;6138008;23;20010;-77
2024/01/12 07:26:18;;;;;;;1999.90;999.90;;;-6.70;99.90;;;;;;6136862;23;20088;-76
2024/01/12 07:28:44;;;;;;;1999.90;999.90;;;-6.60;99.90;;;;;;6130797;23;20017;-77
2024/01/12 07:31:09;;;;;;;1999.90;999.90;;;-6.70;99.90;;;;;;6129389;23;20007;-76
2024/01/12 07:33:35;;;;;;;1999.90;999.90;;;-6.60;99.90;;;;;;6128434;23;20086;-77
2024/01/12 07:36:00;;;;;;;1999.90;999.90;;;-6.60;99.90;;;;;;6128018;23;20046;-77
2024/01/12 07:38:26;;;;;;;1999.90;999.90;;;-6.60;99.90;;;;;;6127216;23;20013;-77
2024/01/12 07:40:51;;;;;;;1999.90;999.90;;;-6.60;99.90;;;;;;6125502;23;20433;-77
2024/01/12 07:43:17;;;;;;;1999.90;999.90;;;-6.50;99.90;;;;;;6126686;23;20037;-76
2024/01/12 07:45:42;;;;;;;1999.90;999.90;;;-6.50;99.90;;;;;;6123613;23;20097;-75
2024/01/12 07:48:08;;;;;;;1999.90;999.90;;;-6.50;99.90;;;;;;6096093;23;20015;-75
2024/01/12 07:50:34;;;;;;;1999.90;999.90;;;-6.40;99.90;;;;;;6097472;23;20435;-75
2024/01/12 07:52:59;;;;;;;1999.90;999.90;;;-6.30;99.90;;;;;;6095417;23;20462;-75
2024/01/12 07:55:27;;;;;;;1999.90;999.90;;;-6.10;99.90;;;;;;6097239;23;20061;-75
2024/01/12 07:57:53;;;;;;;1999.90;999.90;;;-6.10;99.90;;;;;;6097269;23;20003;-75
2024/01/12 08:00:18;;;;;;;1999.90;999.90;;;-5.90;99.90;;;;;;6097655;23;20098;-75
2024/01/12 08:02:44;;;;;;;1999.90;999.90;;;-5.70;99.90;;;;;;6097183;23;20011;-75
2024/01/12 08:05:10;;;;;;;1999.90;999.90;;;-5.60;99.90;;;;;;6097516;23;20386;-75
2024/01/12 08:07:36;;;;;;;1999.90;999.90;;;-5.50;99.90;;;;;;6096968;23;20003;-75
2024/01/12 08:10:02;;;;;;;1999.90;999.90;;;-5.40;99.90;;;;;;6097345;23;20011;-75
2024/01/12 08:12:28;;;;;;;1999.90;999.90;;;-5.30;99.90;;;;;;6095593;23;20011;-75
2024/01/12 08:14:53;;;;;;;1999.90;999.90;;;-5.10;99.90;;;;;;6097141;23;20355;-75
2024/01/12 08:17:19;;;;;;;1999.90;999.90;;;-4.90;99.90;;;;;;6097287;23;20034;-75
2024/01/12 08:19:44;;;;;;;1999.90;999.90;;;-4.90;99.90;;;;;;6095980;23;20038;-75
2024/01/12 08:22:10;;;;;;;1999.90;999.90;;;-4.70;99.90;;;;;;6094688;23;20015;-75
2024/01/12 08:24:36;;;;;;;1999.90;999.90;;;-4.60;99.90;;;;;;6097097;23;20018;-75
2024/01/12 08:27:02;;;;;;;1999.90;999.90;;;-4.40;99.90;;;;;;6096859;23;20007;-75
2024/01/12 08:29:27;;;;;;;1999.90;999.90;;;-4.50;99.90;;;;;;6096946;23;20018;-76
2024/01/12 08:31:53;;;;;;;1999.90;999.90;;;-4.40;99.90;;;;;;6097555;23;20011;-75
2024/01/12 08:34:19;;;;;;;1999.90;999.90;;;-4.30;99.90;;;;;;6098886;23;20023;-75
2024/01/12 08:36:44;;;;;;;1999.90;999.90;;;-4.30;99.90;;;;;;6099246;23;20337;-75
2024/01/12 08:39:10;;;;;;;1999.90;999.90;;;-4.30;99.90;;;;;;6099150;23;20019;-75
2024/01/12 08:41:36;;;;;;;1999.90;999.90;;;-4.20;99.90;;;;;;6098769;23;20093;-75
2024/01/12 08:44:01;;;;;;;1999.90;999.90;;;-4.10;99.90;;;;;;6098998;23;20011;-75
2024/01/12 08:46:27;;;;;;;1999.90;999.90;;;-4.10;99.90;;;;;;6098489;23;20011;-75
2024/01/12 08:48:54;;;;;;;1999.90;999.90;;;-4.10;99.90;;;;;;6099034;23;20098;-75
2024/01/12 08:51:20;;;;;;;1999.90;999.90;;;-4.00;99.90;;;;;;6098716;23;20757;-75
2024/01/12 08:53:45;;;;;;;1999.90;999.90;;;-3.90;99.90;;;;;;6099013;23;20003;-75
2024/01/12 08:56:11;;;;;;;1999.90;999.90;;;-3.90;99.90;;;;;;6097092;23;20106;-76
2024/01/12 08:58:38;;;;;;;1999.90;999.90;;;-3.90;99.90;;;;;;6099232;23;20007;-75
2024/01/12 09:01:04;;;;;;;1999.90;999.90;;;-3.80;99.90;;;;;;6096763;23;20011;-75
2024/01/12 09:03:29;;;;;;;1999.90;999.90;;;-3.90;99.90;;;;;;6098854;23;20003;-75
2024/01/12 09:05:55;;;;;;;1999.90;999.90;;;-3.80;99.90;;;;;;6098688;23;20069;-74
2024/01/12 09:08:20;;;;;;;1999.90;999.90;;;-3.70;99.90;;;;;;6097585;23;20379;-77
2024/01/12 09:10:46;;;;;;;1999.90;999.90;;;-3.50;99.90;;;;;;6098898;23;20455;-74
2024/01/12 09:13:11;;;;;;;1999.90;999.90;;;-3.40;99.90;;;;;;6097983;23;20085;-74
2024/01/12 09:15:37;;;;;;;1999.90;999.90;;;-3.40;99.90;;;;;;6098432;23;20098;-75
2024/01/12 09:18:03;;;;;;;1999.90;999.90;;;-3.30;99.90;;;;;;6099084;23;20034;-74
2024/01/12 09:20:32;;;;;;;1999.90;999.90;;;-3.30;99.90;;;;;;6098757;23;20068;-74
2024/01/12 09:22:58;;;;;;;1999.90;999.90;;;-3.20;99.90;;;;;;6098101;23;20007;-74
2024/01/12 09:25:24;;;;;;;1999.90;999.90;;;-3.10;99.90;;;;;;6098870;23;20031;-74
2024/01/12 09:27:50;;;;;;;1999.90;999.90;;;-3.10;99.90;;;;;;6096893;23;20050;-74
2024/01/12 09:30:16;;;;;;;1999.90;999.90;;;-3.10;99.90;;;;;;6098536;23;20011;-74
2024/01/12 09:32:42;;;;;;;1999.90;999.90;;;-3.10;99.90;;;;;;6096568;23;20014;-74
2024/01/12 09:35:08;;;;;;;1999.90;999.90;;;-3.10;99.90;;;;;;6096887;23;20391;-75
2024/01/12 09:37:33;;;;;;;1999.90;999.90;;;-3.00;99.90;;;;;;6096954;23;20078;-74
2024/01/12 09:39:59;;;;;;;1999.90;999.90;;;-2.80;99.90;;;;;;6097046;23;20506;-75
2024/01/12 09:42:30;;;;;;;1999.90;999.90;;;-2.60;99.90;;;;;;6096564;23;20449;-74
2024/01/12 09:44:55;;;;;;;1999.90;999.90;;;-2.60;99.90;;;;;;6097250;23;20011;-74
2024/01/12 09:47:21;;;;;;;1999.90;999.90;;;-2.40;99.90;;;;;;6098351;23;20007;-74
2024/01/12 09:49:47;;;;;;;1999.90;999.90;;;-2.40;99.90;;;;;;6098573;23;20455;-74
2024/01/12 09:52:12;;;;;;;1999.90;999.90;;;-2.50;99.90;;;;;;6097855;23;20041;-74
2024/01/12 09:54:38;;;;;;;1999.90;999.90;;;-2.50;99.90;;;;;;6098590;23;20085;-75
2024/01/12 09:57:06;;;;;;;1999.90;999.90;;;-2.50;99.90;;;;;;6098101;23;20015;-74
2024/01/12 09:59:33;;;;;;;1999.90;999.90;;;-2.30;99.90;;;;;;6098544;23;20015;-74
2024/01/12 10:01:59;;;;;;;1999.90;999.90;;;-2.20;99.90;;;;;;6094741;23;20015;-74
2024/01/12 10:04:24;;;;;;;1999.90;999.90;;;-2.10;99.90;;;;;;6094047;23;20007;-74
2024/01/12 10:06:51;;;;;;;1999.90;999.90;;;-2.00;99.90;;;;;;6093904;23;20439;-74
2024/01/12 10:09:19;;;;;;;1999.90;999.90;;;-2.10;99.90;;;;;;6096387;23;20513;-74
2024/01/12 10:11:45;;;;;;;1999.90;999.90;;;-2.00;99.90;;;;;;6094370;23;20003;-74
2024/01/12 10:14:11;;;;;;;1999.90;999.90;;;-2.10;99.90;;;;;;6096728;23;20022;-74
2024/01/12 10:16:39;;;;;;;1999.90;999.90;;;-2.10;99.90;;;;;;6097073;23;20025;-74
2024/01/12 10:19:05;;;;;;;1999.90;999.90;;;-2.00;99.90;;;;;;6096696;23;20011;-74
2024/01/12 10:21:37;;;;;;;1999.90;999.90;;;-2.10;99.90;;;;;;6093623;23;20061;-74
2024/01/12 10:24:06;;;;;;;1999.90;999.90;;;-2.00;99.90;;;;;;6096443;23;20011;-74
2024/01/12 10:26:31;;;;;;;1999.90;999.90;;;-2.10;99.90;;;;;;6096937;23;20335;-74
2024/01/12 10:29:04;;;;;;;1999.90;999.90;;;-2.10;99.90;;;;;;6096782;23;20015;-74
2024/01/12 10:31:30;;;;;;;1999.90;999.90;;;-1.90;99.90;;;;;;6096907;23;20326;-74
2024/01/12 10:34:00;;;;;;;1999.90;999.90;;;-1.70;99.90;;;;;;6096885;23;20138;-74
2024/01/12 10:36:27;;;;;;;1999.90;999.90;;;-1.60;99.90;;;;;;6096457;23;20050;-74
2024/01/12 10:38:56;;;;;;;1999.90;999.90;;;-1.60;99.90;;;;;;6096726;23;20011;-74
2024/01/12 10:41:24;;;;;;;1999.90;999.90;;;-1.50;99.90;;;;;;6094797;23;20401;-75
2024/01/12 10:43:57;;;;;;;1999.90;999.90;;;-1.40;99.90;;;;;;6097038;23;20454;-74
2024/01/12 10:46:40;;;;;;;1999.90;999.90;;;-1.40;99.90;;;;;;6096346;23;20011;-75
2024/01/12 10:49:16;;;;;;;1999.90;999.90;;;-1.30;99.90;;;;;;6096565;23;20011;-74
2024/01/12 10:52:08;;;;;;;1999.90;999.90;;;-1.20;99.90;;;;;;6094406;23;20011;-75
2024/01/12 10:54:55;;;;;;;1999.90;999.90;;;-1.10;99.90;;;;;;6095659;23;20015;-74
2024/01/12 10:57:22;;;;;;;1999.90;999.90;;;-1.10;99.90;;;;;;6094634;23;20011;-74
2024/01/12 10:59:49;;;;;;;1999.90;999.90;;;-1.20;99.90;;;;;;6096552;23;20018;-74
2024/01/12 11:02:16;;;;;;;1999.90;999.90;;;-1.10;99.90;;;;;;6096487;23;20042;-74
2024/01/12 11:04:42;;;;;;;1999.90;999.90;;;-1.20;99.90;;;;;;6096705;23;20011;-74
2024/01/12 11:07:09;;;;;;;1999.90;999.90;;;-1.10;99.90;;;;;;6096781;23;20054;-74
2024/01/12 11:09:35;;;;;;;1999.90;999.90;;;-1.00;99.90;;;;;;6094948;23;20018;-73
2024/01/12 11:12:09;;;;;;;1999.90;999.90;;;-1.20;99.90;;;;;;6096088;23;20427;-74
2024/01/12 11:14:36;;;;;;;1999.90;999.90;;;-1.10;99.90;;;;;;6096980;23;20015;-74
2024/01/12 11:17:05;;;;;;;1999.90;999.90;;;-1.00;99.90;;;;;;6096678;23;20443;-74
2024/01/12 11:19:32;;;;;;;1999.90;999.90;;;-0.90;99.90;;;;;;6096507;23;20046;-75
2024/01/12 11:22:07;;;;;;;1999.90;999.90;;;-1.00;99.90;;;;;;6096351;23;20133;-75
2024/01/12 11:24:37;;;;;;;1999.90;999.90;;;-1.00;99.90;;;;;;6094625;23;20014;-75
2024/01/12 11:27:04;;;;;;;1999.90;999.90;;;-1.00;99.90;;;;;;6096658;23;20070;-75
2024/01/12 11:29:31;;;;;;;1999.90;999.90;;;-0.90;99.90;;;;;;6096706;23;20434;-75
2024/01/12 11:32:03;;;;;;;1999.90;999.90;;;-0.90;99.90;;;;;;6096557;23;20042;-75
2024/01/12 11:34:31;;;;;;;1999.90;999.90;;;-0.90;99.90;;;;;;6096554;23;20011;-74
2024/01/12 11:36:58;;;;;;;1999.90;999.90;;;-0.90;99.90;;;;;;6096302;23;20010;-74
2024/01/12 11:39:24;;;;;;;1999.90;999.90;;;-1.00;99.90;;;;;;6096505;23;20086;-75
2024/01/12 11:41:52;;;;;;;1999.90;999.90;;;-1.00;99.90;;;;;;6093746;23;20046;-75
2024/01/12 11:44:18;;;;;;;1999.90;999.90;;;-0.90;99.90;;;;;;6096437;23;20011;-74
2024/01/12 11:46:44;;;;;;;1999.90;999.90;;;-0.90;99.90;;;;;;6096065;23;20086;-74
2024/01/12 11:49:10;;;;;;;1999.90;999.90;;;-1.00;99.90;;;;;;6094790;23;20019;-75
2024/01/12 11:51:35;;;;;;;1999.90;999.90;;;-0.80;99.90;;;;;;6095882;23;20003;-76
2024/01/12 11:54:01;;;;;;;1999.90;999.90;;;-0.90;99.90;;;;;;6097390;23;20006;-76